sensor_id;sensor_type;location;lat;lon;timestamp;P1;durP1;ratioP1;P2;durP2;ratioP2
50205;SDS011;36098;48.390;10.856;2023-05-16T00:01:52;2.42;;;1.40;;
50205;SDS011;36098;48.390;10.856;2023-05-16T00:04:18;2.13;;;1.38;;
50205;SDS011;36098;48.390;10.856;2023-05-16T00:06:44;2.08;;;1.17;;
50205;SDS011;36098;48.390;10.856;2023-05-16T00:09:09;4.18;;;1.48;;
50205;SDS011;36098;48.390;10.856;2023-05-16T00:11:34;1.30;;;1.20;;
50205;SDS011;36098;48.390;10.856;2023-05-16T00:14:00;2.20;;;1.40;;
50205;SDS011;36098;48.390;10.856;2023-05-16T00:16:25;1.20;;;1.00;;
50205;SDS011;36098;48.390;10.856;2023-05-16T00:18:53;2.15;;;1.10;;
50205;SDS011;36098;48.390;10.856;2023-05-16T00:21:18;1.77;;;1.10;;
50205;SDS011;36098;48.390;10.856;2023-05-16T00:23:43;2.28;;;1.33;;
50205;SDS011;36098;48.390;10.856;2023-05-16T00:26:09;3.90;;;1.20;;
50205;SDS011;36098;48.390;10.856;2023-05-16T00:28:34;2.00;;;1.20;;
50205;SDS011;36098;48.390;10.856;2023-05-16T00:30:59;1.55;;;1.20;;
50205;SDS011;36098;48.390;10.856;2023-05-16T00:33:25;2.83;;;1.48;;
50205;SDS011;36098;48.390;10.856;2023-05-16T00:35:50;1.77;;;1.33;;
50205;SDS011;36098;48.390;10.856;2023-05-16T00:38:17;1.00;;;0.90;;
50205;SDS011;36098;48.390;10.856;2023-05-16T00:40:43;2.10;;;1.25;;
50205;SDS011;36098;48.390;10.856;2023-05-16T00:43:08;4.05;;;1.35;;
50205;SDS011;36098;48.390;10.856;2023-05-16T00:45:33;3.35;;;1.30;;
50205;SDS011;36098;48.390;10.856;2023-05-16T00:47:58;2.95;;;1.33;;
50205;SDS011;36098;48.390;10.856;2023-05-16T00:50:24;1.95;;;1.42;;
50205;SDS011;36098;48.390;10.856;2023-05-16T00:52:49;1.52;;;1.20;;
50205;SDS011;36098;48.390;10.856;2023-05-16T00:55:14;1.60;;;1.02;;
50205;SDS011;36098;48.390;10.856;2023-05-16T00:57:40;1.73;;;1.13;;
50205;SDS011;36098;48.390;10.856;2023-05-16T01:00:05;2.25;;;1.23;;
50205;SDS011;36098;48.390;10.856;2023-05-16T01:02:33;1.52;;;1.00;;
50205;SDS011;36098;48.390;10.856;2023-05-16T01:04:58;1.90;;;1.50;;
50205;SDS011;36098;48.390;10.856;2023-05-16T01:07:24;1.77;;;1.30;;
50205;SDS011;36098;48.390;10.856;2023-05-16T01:09:50;1.67;;;1.30;;
50205;SDS011;36098;48.390;10.856;2023-05-16T01:15:23;1.50;;;1.38;;
50205;SDS011;36098;48.390;10.856;2023-05-16T01:17:55;4.95;;;1.33;;
50205;SDS011;36098;48.390;10.856;2023-05-16T01:25:55;1.13;;;1.00;;
50205;SDS011;36098;48.390;10.856;2023-05-16T01:28:30;2.10;;;1.20;;
50205;SDS011;36098;48.390;10.856;2023-05-16T01:30:56;2.40;;;1.15;;
50205;SDS011;36098;48.390;10.856;2023-05-16T01:33:21;1.50;;;1.10;;
50205;SDS011;36098;48.390;10.856;2023-05-16T01:38:24;1.85;;;1.30;;
50205;SDS011;36098;48.390;10.856;2023-05-16T01:43:20;2.10;;;1.30;;
50205;SDS011;36098;48.390;10.856;2023-05-16T01:45:54;2.17;;;1.23;;
50205;SDS011;36098;48.390;10.856;2023-05-16T01:48:26;1.65;;;1.33;;
50205;SDS011;36098;48.390;10.856;2023-05-16T01:50:56;1.52;;;1.30;;
50205;SDS011;36098;48.390;10.856;2023-05-16T01:53:26;2.03;;;1.13;;
50205;SDS011;36098;48.390;10.856;2023-05-16T01:55:55;2.40;;;1.23;;
50205;SDS011;36098;48.390;10.856;2023-05-16T01:58:22;2.30;;;1.20;;
50205;SDS011;36098;48.390;10.856;2023-05-16T02:00:51;2.10;;;1.40;;
50205;SDS011;36098;48.390;10.856;2023-05-16T02:03:17;1.25;;;1.15;;
50205;SDS011;36098;48.390;10.856;2023-05-16T02:05:42;3.60;;;1.50;;
50205;SDS011;36098;48.390;10.856;2023-05-16T02:08:08;2.72;;;1.30;;
50205;SDS011;36098;48.390;10.856;2023-05-16T02:10:33;2.22;;;1.40;;
50205;SDS011;36098;48.390;10.856;2023-05-16T02:12:58;1.98;;;1.38;;
50205;SDS011;36098;48.390;10.856;2023-05-16T02:15:24;1.52;;;1.30;;
50205;SDS011;36098;48.390;10.856;2023-05-16T02:17:49;1.70;;;1.30;;
50205;SDS011;36098;48.390;10.856;2023-05-16T02:20:14;1.38;;;1.15;;
50205;SDS011;36098;48.390;10.856;2023-05-16T02:22:39;1.20;;;1.05;;
50205;SDS011;36098;48.390;10.856;2023-05-16T02:25:06;1.48;;;1.23;;
50205;SDS011;36098;48.390;10.856;2023-05-16T02:27:32;1.88;;;1.33;;
50205;SDS011;36098;48.390;10.856;2023-05-16T02:29:57;2.55;;;1.20;;
50205;SDS011;36098;48.390;10.856;2023-05-16T02:32:23;2.55;;;1.05;;
50205;SDS011;36098;48.390;10.856;2023-05-16T02:34:48;1.30;;;0.95;;
50205;SDS011;36098;48.390;10.856;2023-05-16T02:37:14;1.63;;;1.17;;
50205;SDS011;36098;48.390;10.856;2023-05-16T02:39:40;2.88;;;1.45;;
50205;SDS011;36098;48.390;10.856;2023-05-16T02:42:05;1.48;;;1.20;;
50205;SDS011;36098;48.390;10.856;2023-05-16T02:44:31;1.42;;;1.10;;
50205;SDS011;36098;48.390;10.856;2023-05-16T02:46:56;1.70;;;1.30;;
50205;SDS011;36098;48.390;10.856;2023-05-16T02:49:21;1.90;;;1.38;;
50205;SDS011;36098;48.390;10.856;2023-05-16T02:51:47;1.38;;;1.05;;
50205;SDS011;36098;48.390;10.856;2023-05-16T02:54:12;1.48;;;1.38;;
50205;SDS011;36098;48.390;10.856;2023-05-16T02:56:37;1.10;;;1.00;;
50205;SDS011;36098;48.390;10.856;2023-05-16T02:59:03;3.15;;;1.30;;
50205;SDS011;36098;48.390;10.856;2023-05-16T03:01:29;1.48;;;1.13;;
50205;SDS011;36098;48.390;10.856;2023-05-16T03:03:54;1.90;;;1.35;;
50205;SDS011;36098;48.390;10.856;2023-05-16T03:06:20;1.60;;;1.30;;
50205;SDS011;36098;48.390;10.856;2023-05-16T03:08:45;1.67;;;1.40;;
50205;SDS011;36098;48.390;10.856;2023-05-16T03:11:11;1.17;;;1.00;;
50205;SDS011;36098;48.390;10.856;2023-05-16T03:13:36;2.83;;;1.40;;
50205;SDS011;36098;48.390;10.856;2023-05-16T03:16:01;1.77;;;1.30;;
50205;SDS011;36098;48.390;10.856;2023-05-16T03:18:27;1.92;;;1.13;;
50205;SDS011;36098;48.390;10.856;2023-05-16T03:20:52;1.55;;;1.38;;
50205;SDS011;36098;48.390;10.856;2023-05-16T03:23:18;1.20;;;1.10;;
50205;SDS011;36098;48.390;10.856;2023-05-16T03:25:44;2.53;;;1.20;;
50205;SDS011;36098;48.390;10.856;2023-05-16T03:28:10;1.95;;;1.30;;
50205;SDS011;36098;48.390;10.856;2023-05-16T03:30:35;1.30;;;1.13;;
50205;SDS011;36098;48.390;10.856;2023-05-16T03:33:01;1.67;;;1.20;;
50205;SDS011;36098;48.390;10.856;2023-05-16T03:35:28;1.50;;;1.20;;
50205;SDS011;36098;48.390;10.856;2023-05-16T03:37:53;1.52;;;1.20;;
50205;SDS011;36098;48.390;10.856;2023-05-16T03:40:19;1.70;;;1.27;;
50205;SDS011;36098;48.390;10.856;2023-05-16T03:42:44;1.88;;;1.30;;
50205;SDS011;36098;48.390;10.856;2023-05-16T03:45:10;2.00;;;1.45;;
50205;SDS011;36098;48.390;10.856;2023-05-16T03:47:36;1.40;;;1.23;;
50205;SDS011;36098;48.390;10.856;2023-05-16T03:50:01;3.10;;;1.50;;
50205;SDS011;36098;48.390;10.856;2023-05-16T03:52:27;2.42;;;1.40;;
50205;SDS011;36098;48.390;10.856;2023-05-16T03:54:52;1.67;;;1.35;;
50205;SDS011;36098;48.390;10.856;2023-05-16T03:57:17;1.80;;;1.30;;
50205;SDS011;36098;48.390;10.856;2023-05-16T03:59:43;1.58;;;1.30;;
50205;SDS011;36098;48.390;10.856;2023-05-16T04:02:08;1.60;;;1.10;;
50205;SDS011;36098;48.390;10.856;2023-05-16T04:04:33;1.83;;;1.60;;
50205;SDS011;36098;48.390;10.856;2023-05-16T04:06:59;1.60;;;1.40;;
50205;SDS011;36098;48.390;10.856;2023-05-16T04:09:25;1.65;;;1.50;;
50205;SDS011;36098;48.390;10.856;2023-05-16T04:11:50;1.80;;;1.40;;
50205;SDS011;36098;48.390;10.856;2023-05-16T04:14:16;1.70;;;1.23;;
50205;SDS011;36098;48.390;10.856;2023-05-16T04:16:41;1.92;;;1.30;;
50205;SDS011;36098;48.390;10.856;2023-05-16T04:19:06;1.63;;;1.42;;
50205;SDS011;36098;48.390;10.856;2023-05-16T04:21:32;1.95;;;1.40;;
50205;SDS011;36098;48.390;10.856;2023-05-16T04:23:57;2.13;;;1.38;;
50205;SDS011;36098;48.390;10.856;2023-05-16T04:26:22;1.40;;;1.30;;
50205;SDS011;36098;48.390;10.856;2023-05-16T04:28:48;1.77;;;1.48;;
50205;SDS011;36098;48.390;10.856;2023-05-16T04:31:14;1.50;;;1.30;;
50205;SDS011;36098;48.390;10.856;2023-05-16T04:33:39;2.15;;;1.40;;
50205;SDS011;36098;48.390;10.856;2023-05-16T04:36:05;1.92;;;1.27;;
50205;SDS011;36098;48.390;10.856;2023-05-16T04:38:30;1.25;;;1.10;;
50205;SDS011;36098;48.390;10.856;2023-05-16T04:40:56;1.88;;;1.23;;
50205;SDS011;36098;48.390;10.856;2023-05-16T04:43:22;1.30;;;1.20;;
50205;SDS011;36098;48.390;10.856;2023-05-16T04:45:47;1.33;;;1.17;;
50205;SDS011;36098;48.390;10.856;2023-05-16T04:48:13;3.65;;;1.48;;
50205;SDS011;36098;48.390;10.856;2023-05-16T04:50:39;1.30;;;1.20;;
50205;SDS011;36098;48.390;10.856;2023-05-16T04:53:04;1.55;;;1.30;;
50205;SDS011;36098;48.390;10.856;2023-05-16T04:55:30;1.60;;;1.48;;
50205;SDS011;36098;48.390;10.856;2023-05-16T04:57:55;1.83;;;1.40;;
50205;SDS011;36098;48.390;10.856;2023-05-16T05:00:20;1.95;;;1.35;;
50205;SDS011;36098;48.390;10.856;2023-05-16T05:02:46;1.52;;;1.20;;
50205;SDS011;36098;48.390;10.856;2023-05-16T05:05:11;3.80;;;1.27;;
50205;SDS011;36098;48.390;10.856;2023-05-16T05:07:36;8.82;;;1.33;;
50205;SDS011;36098;48.390;10.856;2023-05-16T05:10:02;2.40;;;1.40;;
50205;SDS011;36098;48.390;10.856;2023-05-16T05:12:27;8.95;;;1.48;;
50205;SDS011;36098;48.390;10.856;2023-05-16T05:14:53;2.75;;;1.55;;
50205;SDS011;36098;48.390;10.856;2023-05-16T05:17:19;2.17;;;1.50;;
50205;SDS011;36098;48.390;10.856;2023-05-16T05:19:45;3.70;;;1.13;;
50205;SDS011;36098;48.390;10.856;2023-05-16T05:22:12;4.90;;;1.60;;
50205;SDS011;36098;48.390;10.856;2023-05-16T05:24:37;6.85;;;1.50;;
50205;SDS011;36098;48.390;10.856;2023-05-16T05:27:03;2.90;;;1.70;;
50205;SDS011;36098;48.390;10.856;2023-05-16T05:29:28;1.80;;;1.33;;
50205;SDS011;36098;48.390;10.856;2023-05-16T05:31:54;5.32;;;1.52;;
50205;SDS011;36098;48.390;10.856;2023-05-16T05:34:19;6.20;;;1.58;;
50205;SDS011;36098;48.390;10.856;2023-05-16T05:36:44;5.47;;;1.50;;
50205;SDS011;36098;48.390;10.856;2023-05-16T05:39:10;6.45;;;1.50;;
50205;SDS011;36098;48.390;10.856;2023-05-16T05:41:36;5.55;;;1.52;;
50205;SDS011;36098;48.390;10.856;2023-05-16T05:44:01;5.55;;;1.50;;
50205;SDS011;36098;48.390;10.856;2023-05-16T05:46:27;6.05;;;1.50;;
50205;SDS011;36098;48.390;10.856;2023-05-16T05:48:52;7.72;;;1.60;;
50205;SDS011;36098;48.390;10.856;2023-05-16T05:51:18;5.32;;;1.92;;
50205;SDS011;36098;48.390;10.856;2023-05-16T05:53:43;4.70;;;1.60;;
50205;SDS011;36098;48.390;10.856;2023-05-16T05:56:08;6.75;;;1.95;;
50205;SDS011;36098;48.390;10.856;2023-05-16T05:58:34;4.00;;;1.95;;
50205;SDS011;36098;48.390;10.856;2023-05-16T06:01:00;4.50;;;1.80;;
50205;SDS011;36098;48.390;10.856;2023-05-16T06:03:26;7.97;;;2.72;;
50205;SDS011;36098;48.390;10.856;2023-05-16T06:05:51;6.60;;;1.90;;
50205;SDS011;36098;48.390;10.856;2023-05-16T06:08:16;5.22;;;2.10;;
50205;SDS011;36098;48.390;10.856;2023-05-16T06:10:42;6.40;;;2.00;;
50205;SDS011;36098;48.390;10.856;2023-05-16T06:13:07;3.75;;;1.70;;
50205;SDS011;36098;48.390;10.856;2023-05-16T06:15:32;4.32;;;1.98;;
50205;SDS011;36098;48.390;10.856;2023-05-16T06:17:57;5.88;;;2.05;;
50205;SDS011;36098;48.390;10.856;2023-05-16T06:20:23;4.00;;;1.73;;
50205;SDS011;36098;48.390;10.856;2023-05-16T06:22:48;5.18;;;1.80;;
50205;SDS011;36098;48.390;10.856;2023-05-16T06:25:13;3.53;;;1.80;;
50205;SDS011;36098;48.390;10.856;2023-05-16T06:27:39;5.38;;;2.60;;
50205;SDS011;36098;48.390;10.856;2023-05-16T06:30:04;13.05;;;2.20;;
50205;SDS011;36098;48.390;10.856;2023-05-16T06:32:30;6.03;;;1.88;;
50205;SDS011;36098;48.390;10.856;2023-05-16T06:34:56;11.05;;;2.38;;
50205;SDS011;36098;48.390;10.856;2023-05-16T06:37:21;5.88;;;2.20;;
50205;SDS011;36098;48.390;10.856;2023-05-16T06:39:47;4.38;;;1.95;;
50205;SDS011;36098;48.390;10.856;2023-05-16T06:42:13;8.63;;;2.20;;
50205;SDS011;36098;48.390;10.856;2023-05-16T06:44:38;7.10;;;2.63;;
50205;SDS011;36098;48.390;10.856;2023-05-16T06:47:03;3.33;;;1.85;;
50205;SDS011;36098;48.390;10.856;2023-05-16T06:49:29;6.43;;;2.10;;
50205;SDS011;36098;48.390;10.856;2023-05-16T06:51:54;5.35;;;1.92;;
50205;SDS011;36098;48.390;10.856;2023-05-16T06:54:19;4.25;;;2.38;;
50205;SDS011;36098;48.390;10.856;2023-05-16T06:56:45;9.85;;;2.10;;
50205;SDS011;36098;48.390;10.856;2023-05-16T06:59:11;6.30;;;1.88;;
50205;SDS011;36098;48.390;10.856;2023-05-16T07:01:36;3.15;;;1.80;;
50205;SDS011;36098;48.390;10.856;2023-05-16T07:04:01;5.82;;;1.95;;
50205;SDS011;36098;48.390;10.856;2023-05-16T07:06:26;6.35;;;2.00;;
50205;SDS011;36098;48.390;10.856;2023-05-16T07:08:52;4.30;;;2.03;;
50205;SDS011;36098;48.390;10.856;2023-05-16T07:11:17;4.28;;;1.70;;
50205;SDS011;36098;48.390;10.856;2023-05-16T07:13:42;6.20;;;2.00;;
50205;SDS011;36098;48.390;10.856;2023-05-16T07:16:07;3.33;;;2.00;;
50205;SDS011;36098;48.390;10.856;2023-05-16T07:18:32;4.95;;;2.03;;
50205;SDS011;36098;48.390;10.856;2023-05-16T07:20:58;4.53;;;2.30;;
50205;SDS011;36098;48.390;10.856;2023-05-16T07:23:23;5.78;;;2.30;;
50205;SDS011;36098;48.390;10.856;2023-05-16T07:25:48;4.13;;;1.80;;
50205;SDS011;36098;48.390;10.856;2023-05-16T07:28:13;5.13;;;1.92;;
50205;SDS011;36098;48.390;10.856;2023-05-16T07:30:39;4.78;;;2.03;;
50205;SDS011;36098;48.390;10.856;2023-05-16T07:33:04;3.28;;;2.00;;
50205;SDS011;36098;48.390;10.856;2023-05-16T07:35:29;4.18;;;1.85;;
50205;SDS011;36098;48.390;10.856;2023-05-16T07:37:55;3.38;;;1.88;;
50205;SDS011;36098;48.390;10.856;2023-05-16T07:40:20;7.35;;;1.92;;
50205;SDS011;36098;48.390;10.856;2023-05-16T07:42:49;3.60;;;1.90;;
50205;SDS011;36098;48.390;10.856;2023-05-16T07:45:15;4.05;;;2.20;;
50205;SDS011;36098;48.390;10.856;2023-05-16T07:47:40;4.72;;;1.95;;
50205;SDS011;36098;48.390;10.856;2023-05-16T07:50:06;2.53;;;1.83;;
50205;SDS011;36098;48.390;10.856;2023-05-16T07:52:31;6.90;;;2.10;;
50205;SDS011;36098;48.390;10.856;2023-05-16T07:54:56;5.32;;;1.83;;
50205;SDS011;36098;48.390;10.856;2023-05-16T07:57:22;5.40;;;2.13;;
50205;SDS011;36098;48.390;10.856;2023-05-16T07:59:47;3.58;;;1.90;;
50205;SDS011;36098;48.390;10.856;2023-05-16T08:02:13;3.22;;;2.05;;
50205;SDS011;36098;48.390;10.856;2023-05-16T08:04:40;4.28;;;2.17;;
50205;SDS011;36098;48.390;10.856;2023-05-16T08:07:06;3.45;;;1.98;;
50205;SDS011;36098;48.390;10.856;2023-05-16T08:09:31;4.82;;;1.92;;
50205;SDS011;36098;48.390;10.856;2023-05-16T08:11:56;5.30;;;2.10;;
50205;SDS011;36098;48.390;10.856;2023-05-16T08:14:22;2.97;;;1.90;;
50205;SDS011;36098;48.390;10.856;2023-05-16T08:16:47;4.63;;;2.05;;
50205;SDS011;36098;48.390;10.856;2023-05-16T08:19:13;3.95;;;1.98;;
50205;SDS011;36098;48.390;10.856;2023-05-16T08:21:38;6.22;;;2.00;;
50205;SDS011;36098;48.390;10.856;2023-05-16T08:24:04;2.22;;;1.83;;
50205;SDS011;36098;48.390;10.856;2023-05-16T08:26:31;3.08;;;1.95;;
50205;SDS011;36098;48.390;10.856;2023-05-16T08:28:56;4.13;;;2.03;;
50205;SDS011;36098;48.390;10.856;2023-05-16T08:31:21;3.60;;;2.25;;
50205;SDS011;36098;48.390;10.856;2023-05-16T08:33:47;5.10;;;2.30;;
50205;SDS011;36098;48.390;10.856;2023-05-16T08:36:12;4.20;;;2.10;;
50205;SDS011;36098;48.390;10.856;2023-05-16T08:38:39;2.78;;;2.00;;
50205;SDS011;36098;48.390;10.856;2023-05-16T08:41:04;2.80;;;2.00;;
50205;SDS011;36098;48.390;10.856;2023-05-16T08:43:30;3.13;;;1.90;;
50205;SDS011;36098;48.390;10.856;2023-05-16T08:45:57;3.17;;;1.80;;
50205;SDS011;36098;48.390;10.856;2023-05-16T08:48:23;3.63;;;2.30;;
50205;SDS011;36098;48.390;10.856;2023-05-16T08:50:51;2.80;;;1.90;;
50205;SDS011;36098;48.390;10.856;2023-05-16T08:53:20;3.97;;;2.00;;
50205;SDS011;36098;48.390;10.856;2023-05-16T08:55:50;3.13;;;2.20;;
50205;SDS011;36098;48.390;10.856;2023-05-16T08:58:16;3.65;;;1.98;;
50205;SDS011;36098;48.390;10.856;2023-05-16T09:00:42;4.28;;;2.00;;
50205;SDS011;36098;48.390;10.856;2023-05-16T09:03:08;2.53;;;2.00;;
50205;SDS011;36098;48.390;10.856;2023-05-16T09:05:33;2.75;;;2.17;;
50205;SDS011;36098;48.390;10.856;2023-05-16T09:07:59;3.28;;;2.15;;
50205;SDS011;36098;48.390;10.856;2023-05-16T09:10:24;2.72;;;2.00;;
50205;SDS011;36098;48.390;10.856;2023-05-16T09:12:49;4.63;;;2.45;;
50205;SDS011;36098;48.390;10.856;2023-05-16T09:15:16;2.80;;;2.10;;
50205;SDS011;36098;48.390;10.856;2023-05-16T09:17:43;3.20;;;2.05;;
50205;SDS011;36098;48.390;10.856;2023-05-16T09:20:11;3.42;;;2.13;;
50205;SDS011;36098;48.390;10.856;2023-05-16T09:22:49;4.32;;;1.92;;
50205;SDS011;36098;48.390;10.856;2023-05-16T09:25:24;3.85;;;2.00;;
50205;SDS011;36098;48.390;10.856;2023-05-16T09:27:52;3.10;;;2.17;;
50205;SDS011;36098;48.390;10.856;2023-05-16T09:30:22;3.42;;;2.30;;
50205;SDS011;36098;48.390;10.856;2023-05-16T09:32:51;2.63;;;1.70;;
50205;SDS011;36098;48.390;10.856;2023-05-16T09:35:18;3.63;;;2.20;;
50205;SDS011;36098;48.390;10.856;2023-05-16T09:37:44;2.47;;;2.00;;
50205;SDS011;36098;48.390;10.856;2023-05-16T09:40:13;3.72;;;2.17;;
50205;SDS011;36098;48.390;10.856;2023-05-16T09:42:39;2.55;;;2.03;;
50205;SDS011;36098;48.390;10.856;2023-05-16T09:45:05;3.25;;;2.15;;
50205;SDS011;36098;48.390;10.856;2023-05-16T09:47:31;3.05;;;2.15;;
50205;SDS011;36098;48.390;10.856;2023-05-16T09:49:56;3.55;;;2.47;;
50205;SDS011;36098;48.390;10.856;2023-05-16T09:52:25;3.28;;;2.20;;
50205;SDS011;36098;48.390;10.856;2023-05-16T09:54:51;3.20;;;2.00;;
50205;SDS011;36098;48.390;10.856;2023-05-16T09:57:17;4.22;;;2.30;;
50205;SDS011;36098;48.390;10.856;2023-05-16T09:59:44;4.13;;;1.95;;
50205;SDS011;36098;48.390;10.856;2023-05-16T10:02:09;2.80;;;2.15;;
50205;SDS011;36098;48.390;10.856;2023-05-16T10:04:37;6.70;;;2.10;;
50205;SDS011;36098;48.390;10.856;2023-05-16T10:07:02;2.90;;;2.03;;
50205;SDS011;36098;48.390;10.856;2023-05-16T10:09:29;3.10;;;2.00;;
50205;SDS011;36098;48.390;10.856;2023-05-16T10:11:56;2.55;;;2.10;;
50205;SDS011;36098;48.390;10.856;2023-05-16T10:14:26;3.10;;;2.00;;
50205;SDS011;36098;48.390;10.856;2023-05-16T10:16:52;1.90;;;1.60;;
50205;SDS011;36098;48.390;10.856;2023-05-16T10:19:19;4.53;;;2.10;;
50205;SDS011;36098;48.390;10.856;2023-05-16T10:21:47;3.10;;;2.15;;
50205;SDS011;36098;48.390;10.856;2023-05-16T10:24:20;3.88;;;1.80;;
50205;SDS011;36098;48.390;10.856;2023-05-16T10:26:49;3.22;;;1.95;;
50205;SDS011;36098;48.390;10.856;2023-05-16T10:29:16;4.07;;;2.00;;
50205;SDS011;36098;48.390;10.856;2023-05-16T10:31:42;5.05;;;2.00;;
50205;SDS011;36098;48.390;10.856;2023-05-16T10:34:08;4.07;;;2.30;;
50205;SDS011;36098;48.390;10.856;2023-05-16T10:36:34;7.00;;;2.05;;
50205;SDS011;36098;48.390;10.856;2023-05-16T10:39:00;5.50;;;2.10;;
50205;SDS011;36098;48.390;10.856;2023-05-16T10:41:26;6.55;;;2.22;;
50205;SDS011;36098;48.390;10.856;2023-05-16T10:43:55;3.30;;;1.85;;
50205;SDS011;36098;48.390;10.856;2023-05-16T10:46:21;4.80;;;2.10;;
50205;SDS011;36098;48.390;10.856;2023-05-16T10:48:47;2.78;;;2.00;;
50205;SDS011;36098;48.390;10.856;2023-05-16T10:51:45;4.78;;;2.10;;
50205;SDS011;36098;48.390;10.856;2023-05-16T10:54:05;2.45;;;1.80;;
50205;SDS011;36098;48.390;10.856;2023-05-16T10:56:35;7.80;;;2.17;;
50205;SDS011;36098;48.390;10.856;2023-05-16T10:59:00;4.72;;;2.20;;
50205;SDS011;36098;48.390;10.856;2023-05-16T11:01:27;6.47;;;2.08;;
50205;SDS011;36098;48.390;10.856;2023-05-16T11:06:23;4.13;;;2.03;;
50205;SDS011;36098;48.390;10.856;2023-05-16T11:11:38;3.00;;;2.00;;
50205;SDS011;36098;48.390;10.856;2023-05-16T11:14:20;4.90;;;2.78;;
50205;SDS011;36098;48.390;10.856;2023-05-16T11:16:55;5.10;;;2.20;;
50205;SDS011;36098;48.390;10.856;2023-05-16T11:19:29;5.88;;;2.38;;
50205;SDS011;36098;48.390;10.856;2023-05-16T11:22:12;5.10;;;2.63;;
50205;SDS011;36098;48.390;10.856;2023-05-16T11:27:19;4.97;;;2.42;;
50205;SDS011;36098;48.390;10.856;2023-05-16T11:29:49;12.40;;;2.95;;
50205;SDS011;36098;48.390;10.856;2023-05-16T11:32:18;5.82;;;2.25;;
50205;SDS011;36098;48.390;10.856;2023-05-16T11:34:45;4.65;;;2.67;;
50205;SDS011;36098;48.390;10.856;2023-05-16T11:37:12;5.50;;;2.25;;
50205;SDS011;36098;48.390;10.856;2023-05-16T11:39:37;5.10;;;2.38;;
50205;SDS011;36098;48.390;10.856;2023-05-16T11:42:03;7.18;;;2.42;;
50205;SDS011;36098;48.390;10.856;2023-05-16T11:44:28;9.07;;;2.38;;
50205;SDS011;36098;48.390;10.856;2023-05-16T11:46:53;7.68;;;2.20;;
50205;SDS011;36098;48.390;10.856;2023-05-16T11:49:18;6.28;;;2.50;;
50205;SDS011;36098;48.390;10.856;2023-05-16T11:51:44;6.65;;;2.47;;
50205;SDS011;36098;48.390;10.856;2023-05-16T11:54:10;7.75;;;2.58;;
50205;SDS011;36098;48.390;10.856;2023-05-16T11:56:38;5.38;;;2.35;;
50205;SDS011;36098;48.390;10.856;2023-05-16T11:59:04;5.57;;;2.25;;
50205;SDS011;36098;48.390;10.856;2023-05-16T12:01:32;5.65;;;2.30;;
50205;SDS011;36098;48.390;10.856;2023-05-16T12:04:01;4.88;;;2.35;;
50205;SDS011;36098;48.390;10.856;2023-05-16T12:06:32;7.13;;;2.55;;
50205;SDS011;36098;48.390;10.856;2023-05-16T12:08:57;5.30;;;2.60;;
50205;SDS011;36098;48.390;10.856;2023-05-16T12:11:22;4.65;;;2.10;;
50205;SDS011;36098;48.390;10.856;2023-05-16T12:13:48;5.80;;;2.20;;
50205;SDS011;36098;48.390;10.856;2023-05-16T12:16:14;8.05;;;2.78;;
50205;SDS011;36098;48.390;10.856;2023-05-16T12:18:40;5.90;;;2.47;;
50205;SDS011;36098;48.390;10.856;2023-05-16T12:21:05;5.05;;;2.13;;
50205;SDS011;36098;48.390;10.856;2023-05-16T12:23:34;6.38;;;2.58;;
50205;SDS011;36098;48.390;10.856;2023-05-16T12:26:01;7.45;;;2.17;;
50205;SDS011;36098;48.390;10.856;2023-05-16T12:28:31;9.93;;;2.83;;
50205;SDS011;36098;48.390;10.856;2023-05-16T12:31:03;7.90;;;2.65;;
50205;SDS011;36098;48.390;10.856;2023-05-16T12:33:28;7.75;;;2.60;;
50205;SDS011;36098;48.390;10.856;2023-05-16T12:35:54;9.30;;;2.40;;
50205;SDS011;36098;48.390;10.856;2023-05-16T12:38:19;7.00;;;2.15;;
50205;SDS011;36098;48.390;10.856;2023-05-16T12:40:45;5.50;;;2.47;;
50205;SDS011;36098;48.390;10.856;2023-05-16T12:43:15;5.55;;;2.40;;
50205;SDS011;36098;48.390;10.856;2023-05-16T12:45:52;3.78;;;2.22;;
50205;SDS011;36098;48.390;10.856;2023-05-16T12:48:18;9.70;;;2.83;;
50205;SDS011;36098;48.390;10.856;2023-05-16T12:50:44;6.53;;;2.63;;
50205;SDS011;36098;48.390;10.856;2023-05-16T12:53:13;9.98;;;2.83;;
50205;SDS011;36098;48.390;10.856;2023-05-16T12:55:40;5.25;;;2.20;;
50205;SDS011;36098;48.390;10.856;2023-05-16T12:58:07;5.43;;;2.30;;
50205;SDS011;36098;48.390;10.856;2023-05-16T13:00:33;9.05;;;2.63;;
50205;SDS011;36098;48.390;10.856;2023-05-16T13:02:58;5.93;;;2.40;;
50205;SDS011;36098;48.390;10.856;2023-05-16T13:05:23;9.10;;;2.58;;
50205;SDS011;36098;48.390;10.856;2023-05-16T13:07:49;8.50;;;2.42;;
50205;SDS011;36098;48.390;10.856;2023-05-16T13:10:17;4.25;;;2.17;;
50205;SDS011;36098;48.390;10.856;2023-05-16T13:12:43;7.97;;;2.30;;
50205;SDS011;36098;48.390;10.856;2023-05-16T13:15:09;4.53;;;2.10;;
50205;SDS011;36098;48.390;10.856;2023-05-16T13:17:36;5.57;;;2.30;;
50205;SDS011;36098;48.390;10.856;2023-05-16T13:20:03;4.75;;;2.10;;
50205;SDS011;36098;48.390;10.856;2023-05-16T13:22:39;5.15;;;2.20;;
50205;SDS011;36098;48.390;10.856;2023-05-16T13:25:04;5.60;;;2.45;;
50205;SDS011;36098;48.390;10.856;2023-05-16T13:27:31;8.80;;;2.88;;
50205;SDS011;36098;48.390;10.856;2023-05-16T13:29:56;4.80;;;2.22;;
50205;SDS011;36098;48.390;10.856;2023-05-16T13:32:22;5.43;;;2.15;;
50205;SDS011;36098;48.390;10.856;2023-05-16T13:34:48;8.80;;;2.38;;
50205;SDS011;36098;48.390;10.856;2023-05-16T13:37:14;11.32;;;2.90;;
50205;SDS011;36098;48.390;10.856;2023-05-16T13:39:39;11.38;;;2.90;;
50205;SDS011;36098;48.390;10.856;2023-05-16T13:42:05;7.05;;;2.67;;
50205;SDS011;36098;48.390;10.856;2023-05-16T13:44:30;7.28;;;2.40;;
50205;SDS011;36098;48.390;10.856;2023-05-16T13:46:56;7.30;;;2.30;;
50205;SDS011;36098;48.390;10.856;2023-05-16T13:49:22;10.57;;;2.80;;
50205;SDS011;36098;48.390;10.856;2023-05-16T13:51:47;7.20;;;2.70;;
50205;SDS011;36098;48.390;10.856;2023-05-16T13:54:13;9.55;;;2.70;;
50205;SDS011;36098;48.390;10.856;2023-05-16T13:56:38;6.60;;;2.92;;
50205;SDS011;36098;48.390;10.856;2023-05-16T13:59:03;8.95;;;3.03;;
50205;SDS011;36098;48.390;10.856;2023-05-16T14:01:29;5.93;;;2.80;;
50205;SDS011;36098;48.390;10.856;2023-05-16T14:03:54;8.48;;;3.40;;
50205;SDS011;36098;48.390;10.856;2023-05-16T14:06:20;7.28;;;3.17;;
50205;SDS011;36098;48.390;10.856;2023-05-16T14:08:45;5.30;;;3.00;;
50205;SDS011;36098;48.390;10.856;2023-05-16T14:11:11;4.68;;;3.10;;
50205;SDS011;36098;48.390;10.856;2023-05-16T14:13:36;12.15;;;3.28;;
50205;SDS011;36098;48.390;10.856;2023-05-16T14:16:04;8.52;;;3.08;;
50205;SDS011;36098;48.390;10.856;2023-05-16T14:18:30;11.52;;;3.00;;
50205;SDS011;36098;48.390;10.856;2023-05-16T14:20:55;6.13;;;2.90;;
50205;SDS011;36098;48.390;10.856;2023-05-16T14:23:20;5.45;;;2.65;;
50205;SDS011;36098;48.390;10.856;2023-05-16T14:25:46;4.45;;;2.55;;
50205;SDS011;36098;48.390;10.856;2023-05-16T14:28:11;6.70;;;2.40;;
50205;SDS011;36098;48.390;10.856;2023-05-16T14:30:36;8.30;;;2.88;;
50205;SDS011;36098;48.390;10.856;2023-05-16T14:33:02;4.80;;;2.90;;
50205;SDS011;36098;48.390;10.856;2023-05-16T14:35:27;9.68;;;2.80;;
50205;SDS011;36098;48.390;10.856;2023-05-16T14:37:53;7.63;;;2.53;;
50205;SDS011;36098;48.390;10.856;2023-05-16T14:40:18;10.00;;;2.45;;
50205;SDS011;36098;48.390;10.856;2023-05-16T14:42:45;5.32;;;2.40;;
50205;SDS011;36098;48.390;10.856;2023-05-16T14:45:10;9.18;;;2.58;;
50205;SDS011;36098;48.390;10.856;2023-05-16T14:47:36;6.82;;;2.50;;
50205;SDS011;36098;48.390;10.856;2023-05-16T14:50:01;5.32;;;2.60;;